sensor_id;sensor_type;location;lat;lon;timestamp;P1;durP1;ratioP1;P2;durP2;ratioP2
5285;SDS011;2665;53.112;7.358;2023-08-21T00:01:01;7.43;;;1.60;;
5285;SDS011;2665;53.112;7.358;2023-08-21T00:03:27;3.77;;;1.40;;
5285;SDS011;2665;53.112;7.358;2023-08-21T00:05:53;5.27;;;1.50;;
5285;SDS011;2665;53.112;7.358;2023-08-21T00:08:18;2.33;;;1.37;;
5285;SDS011;2665;53.112;7.358;2023-08-21T00:10:44;2.33;;;1.10;;
5285;SDS011;2665;53.112;7.358;2023-08-21T00:13:10;2.70;;;1.53;;
5285;SDS011;2665;53.112;7.358;2023-08-21T00:15:37;4.03;;;1.70;;
5285;SDS011;2665;53.112;7.358;2023-08-21T00:18:03;3.10;;;1.90;;
5285;SDS011;2665;53.112;7.358;2023-08-21T00:20:29;3.20;;;2.00;;
5285;SDS011;2665;53.112;7.358;2023-08-21T00:22:55;2.80;;;1.97;;
5285;SDS011;2665;53.112;7.358;2023-08-21T00:25:21;6.37;;;2.07;;
5285;SDS011;2665;53.112;7.358;2023-08-21T00:27:47;4.93;;;2.60;;
5285;SDS011;2665;53.112;7.358;2023-08-21T00:30:13;3.40;;;1.93;;
5285;SDS011;2665;53.112;7.358;2023-08-21T00:32:42;5.10;;;1.97;;
5285;SDS011;2665;53.112;7.358;2023-08-21T00:35:07;2.90;;;1.60;;
5285;SDS011;2665;53.112;7.358;2023-08-21T00:37:33;2.67;;;1.77;;
5285;SDS011;2665;53.112;7.358;2023-08-21T00:39:59;5.97;;;2.30;;
5285;SDS011;2665;53.112;7.358;2023-08-21T00:42:25;6.40;;;2.20;;
5285;SDS011;2665;53.112;7.358;2023-08-21T00:44:51;5.10;;;2.60;;
5285;SDS011;2665;53.112;7.358;2023-08-21T00:47:16;4.03;;;2.70;;
5285;SDS011;2665;53.112;7.358;2023-08-21T00:49:44;3.80;;;2.50;;
5285;SDS011;2665;53.112;7.358;2023-08-21T00:52:10;9.40;;;2.80;;
5285;SDS011;2665;53.112;7.358;2023-08-21T00:54:37;3.27;;;2.20;;
5285;SDS011;2665;53.112;7.358;2023-08-21T00:57:03;5.20;;;2.60;;
5285;SDS011;2665;53.112;7.358;2023-08-21T00:59:29;5.67;;;2.53;;
5285;SDS011;2665;53.112;7.358;2023-08-21T01:01:55;3.13;;;2.10;;
5285;SDS011;2665;53.112;7.358;2023-08-21T01:04:21;3.50;;;2.60;;
5285;SDS011;2665;53.112;7.358;2023-08-21T01:06:48;3.13;;;2.10;;
5285;SDS011;2665;53.112;7.358;2023-08-21T01:11:58;3.70;;;2.30;;
5285;SDS011;2665;53.112;7.358;2023-08-21T01:17:14;4.83;;;2.13;;
5285;SDS011;2665;53.112;7.358;2023-08-21T01:19:43;3.93;;;2.30;;
5285;SDS011;2665;53.112;7.358;2023-08-21T01:22:11;3.97;;;2.77;;
5285;SDS011;2665;53.112;7.358;2023-08-21T01:24:37;8.00;;;2.00;;
5285;SDS011;2665;53.112;7.358;2023-08-21T01:27:03;4.60;;;2.53;;
5285;SDS011;2665;53.112;7.358;2023-08-21T01:29:28;3.27;;;2.30;;
5285;SDS011;2665;53.112;7.358;2023-08-21T01:34:42;3.60;;;2.57;;
5285;SDS011;2665;53.112;7.358;2023-08-21T01:37:08;3.40;;;2.33;;
5285;SDS011;2665;53.112;7.358;2023-08-21T01:39:35;4.40;;;2.20;;
5285;SDS011;2665;53.112;7.358;2023-08-21T01:42:01;5.20;;;2.57;;
5285;SDS011;2665;53.112;7.358;2023-08-21T01:44:27;5.73;;;2.60;;
5285;SDS011;2665;53.112;7.358;2023-08-21T01:46:53;3.67;;;2.50;;
5285;SDS011;2665;53.112;7.358;2023-08-21T01:49:19;4.30;;;2.60;;
5285;SDS011;2665;53.112;7.358;2023-08-21T01:51:45;4.53;;;2.80;;
5285;SDS011;2665;53.112;7.358;2023-08-21T01:54:11;3.23;;;2.07;;
5285;SDS011;2665;53.112;7.358;2023-08-21T01:56:36;5.80;;;3.70;;
5285;SDS011;2665;53.112;7.358;2023-08-21T01:59:03;2.77;;;1.97;;
5285;SDS011;2665;53.112;7.358;2023-08-21T02:01:30;4.33;;;2.67;;
5285;SDS011;2665;53.112;7.358;2023-08-21T02:03:55;4.50;;;2.30;;
5285;SDS011;2665;53.112;7.358;2023-08-21T02:06:21;3.40;;;2.53;;
5285;SDS011;2665;53.112;7.358;2023-08-21T02:08:46;3.03;;;2.33;;
5285;SDS011;2665;53.112;7.358;2023-08-21T02:11:12;4.17;;;2.70;;
5285;SDS011;2665;53.112;7.358;2023-08-21T02:13:38;4.30;;;2.53;;
5285;SDS011;2665;53.112;7.358;2023-08-21T02:16:03;3.80;;;2.60;;
5285;SDS011;2665;53.112;7.358;2023-08-21T02:18:29;3.40;;;2.53;;
5285;SDS011;2665;53.112;7.358;2023-08-21T02:20:54;4.67;;;2.30;;
5285;SDS011;2665;53.112;7.358;2023-08-21T02:23:20;5.00;;;2.57;;
5285;SDS011;2665;53.112;7.358;2023-08-21T02:25:46;5.00;;;2.80;;
5285;SDS011;2665;53.112;7.358;2023-08-21T02:28:11;3.97;;;2.87;;
5285;SDS011;2665;53.112;7.358;2023-08-21T02:30:41;6.97;;;3.03;;
5285;SDS011;2665;53.112;7.358;2023-08-21T02:33:06;3.23;;;2.53;;
5285;SDS011;2665;53.112;7.358;2023-08-21T02:35:32;3.77;;;2.30;;
5285;SDS011;2665;53.112;7.358;2023-08-21T02:37:58;4.73;;;2.43;;
5285;SDS011;2665;53.112;7.358;2023-08-21T02:40:23;5.40;;;2.70;;
5285;SDS011;2665;53.112;7.358;2023-08-21T02:42:49;3.90;;;2.20;;
5285;SDS011;2665;53.112;7.358;2023-08-21T02:45:14;5.93;;;3.30;;
5285;SDS011;2665;53.112;7.358;2023-08-21T02:47:40;5.37;;;3.20;;
5285;SDS011;2665;53.112;7.358;2023-08-21T02:50:07;5.13;;;2.90;;
5285;SDS011;2665;53.112;7.358;2023-08-21T02:52:35;4.37;;;3.07;;
5285;SDS011;2665;53.112;7.358;2023-08-21T02:55:01;3.77;;;2.20;;
5285;SDS011;2665;53.112;7.358;2023-08-21T02:57:28;6.00;;;2.70;;
5285;SDS011;2665;53.112;7.358;2023-08-21T02:59:54;3.03;;;1.73;;
5285;SDS011;2665;53.112;7.358;2023-08-21T03:02:20;3.87;;;2.67;;
5285;SDS011;2665;53.112;7.358;2023-08-21T03:04:46;3.07;;;1.93;;
5285;SDS011;2665;53.112;7.358;2023-08-21T03:07:12;5.90;;;2.17;;
5285;SDS011;2665;53.112;7.358;2023-08-21T03:09:38;2.80;;;2.20;;
5285;SDS011;2665;53.112;7.358;2023-08-21T03:12:04;2.90;;;1.87;;
5285;SDS011;2665;53.112;7.358;2023-08-21T03:14:31;2.93;;;2.00;;
5285;SDS011;2665;53.112;7.358;2023-08-21T03:16:56;3.87;;;2.20;;
5285;SDS011;2665;53.112;7.358;2023-08-21T03:19:22;4.40;;;2.33;;
5285;SDS011;2665;53.112;7.358;2023-08-21T03:21:47;2.90;;;1.80;;
5285;SDS011;2665;53.112;7.358;2023-08-21T03:24:13;3.53;;;1.70;;
5285;SDS011;2665;53.112;7.358;2023-08-21T03:26:39;4.13;;;2.10;;
5285;SDS011;2665;53.112;7.358;2023-08-21T03:29:04;10.77;;;2.83;;
5285;SDS011;2665;53.112;7.358;2023-08-21T03:31:30;4.47;;;2.20;;
5285;SDS011;2665;53.112;7.358;2023-08-21T03:33:56;3.37;;;2.03;;
5285;SDS011;2665;53.112;7.358;2023-08-21T03:36:22;12.87;;;2.20;;
5285;SDS011;2665;53.112;7.358;2023-08-21T03:38:59;3.97;;;2.13;;
5285;SDS011;2665;53.112;7.358;2023-08-21T03:41:26;4.30;;;2.10;;
5285;SDS011;2665;53.112;7.358;2023-08-21T03:43:52;3.10;;;1.97;;
5285;SDS011;2665;53.112;7.358;2023-08-21T03:46:18;3.53;;;1.80;;
5285;SDS011;2665;53.112;7.358;2023-08-21T03:48:43;4.50;;;2.63;;
5285;SDS011;2665;53.112;7.358;2023-08-21T03:51:09;3.43;;;2.33;;
5285;SDS011;2665;53.112;7.358;2023-08-21T03:53:34;3.17;;;1.70;;
5285;SDS011;2665;53.112;7.358;2023-08-21T03:56:00;4.23;;;2.50;;
5285;SDS011;2665;53.112;7.358;2023-08-21T03:58:26;5.47;;;2.13;;
5285;SDS011;2665;53.112;7.358;2023-08-21T04:00:52;8.77;;;2.23;;
5285;SDS011;2665;53.112;7.358;2023-08-21T04:03:18;6.80;;;2.40;;
5285;SDS011;2665;53.112;7.358;2023-08-21T04:05:44;3.23;;;1.80;;
5285;SDS011;2665;53.112;7.358;2023-08-21T04:08:09;3.77;;;1.83;;
5285;SDS011;2665;53.112;7.358;2023-08-21T04:10:35;3.30;;;2.07;;
5285;SDS011;2665;53.112;7.358;2023-08-21T04:13:00;2.53;;;1.90;;
5285;SDS011;2665;53.112;7.358;2023-08-21T04:15:26;3.03;;;1.73;;
5285;SDS011;2665;53.112;7.358;2023-08-21T04:17:52;2.73;;;1.70;;
5285;SDS011;2665;53.112;7.358;2023-08-21T04:20:19;2.40;;;1.50;;
5285;SDS011;2665;53.112;7.358;2023-08-21T04:22:45;2.23;;;1.50;;
5285;SDS011;2665;53.112;7.358;2023-08-21T04:25:11;2.33;;;1.60;;
5285;SDS011;2665;53.112;7.358;2023-08-21T04:27:36;2.70;;;1.93;;
5285;SDS011;2665;53.112;7.358;2023-08-21T04:30:02;2.43;;;1.70;;
5285;SDS011;2665;53.112;7.358;2023-08-21T04:32:29;2.73;;;1.50;;
5285;SDS011;2665;53.112;7.358;2023-08-21T04:34:56;2.40;;;1.80;;
5285;SDS011;2665;53.112;7.358;2023-08-21T04:37:21;2.60;;;1.70;;
5285;SDS011;2665;53.112;7.358;2023-08-21T04:39:51;2.40;;;1.27;;
5285;SDS011;2665;53.112;7.358;2023-08-21T04:42:17;2.83;;;1.70;;
5285;SDS011;2665;53.112;7.358;2023-08-21T04:44:42;2.77;;;2.00;;
5285;SDS011;2665;53.112;7.358;2023-08-21T04:47:21;3.70;;;1.70;;
5285;SDS011;2665;53.112;7.358;2023-08-21T04:49:49;5.83;;;2.37;;
5285;SDS011;2665;53.112;7.358;2023-08-21T04:52:15;5.77;;;2.13;;
5285;SDS011;2665;53.112;7.358;2023-08-21T04:54:41;3.67;;;1.67;;
5285;SDS011;2665;53.112;7.358;2023-08-21T04:57:06;2.70;;;1.93;;
5285;SDS011;2665;53.112;7.358;2023-08-21T04:59:32;2.87;;;2.50;;
5285;SDS011;2665;53.112;7.358;2023-08-21T05:01:57;2.73;;;1.90;;
5285;SDS011;2665;53.112;7.358;2023-08-21T05:04:23;3.80;;;2.33;;
5285;SDS011;2665;53.112;7.358;2023-08-21T05:06:48;2.50;;;1.90;;
5285;SDS011;2665;53.112;7.358;2023-08-21T05:09:14;3.57;;;1.90;;
5285;SDS011;2665;53.112;7.358;2023-08-21T05:11:40;3.33;;;1.93;;
5285;SDS011;2665;53.112;7.358;2023-08-21T05:14:06;2.83;;;2.03;;
5285;SDS011;2665;53.112;7.358;2023-08-21T05:16:31;2.60;;;1.90;;
5285;SDS011;2665;53.112;7.358;2023-08-21T05:18:57;4.63;;;2.10;;
5285;SDS011;2665;53.112;7.358;2023-08-21T05:21:23;2.80;;;2.00;;
5285;SDS011;2665;53.112;7.358;2023-08-21T05:23:48;3.10;;;2.00;;
5285;SDS011;2665;53.112;7.358;2023-08-21T05:26:14;2.97;;;2.27;;
5285;SDS011;2665;53.112;7.358;2023-08-21T05:28:39;2.93;;;2.20;;
5285;SDS011;2665;53.112;7.358;2023-08-21T05:31:05;3.00;;;2.40;;
5285;SDS011;2665;53.112;7.358;2023-08-21T05:33:31;3.73;;;2.40;;
5285;SDS011;2665;53.112;7.358;2023-08-21T05:35:56;2.87;;;2.20;;
5285;SDS011;2665;53.112;7.358;2023-08-21T05:38:22;2.97;;;2.20;;
5285;SDS011;2665;53.112;7.358;2023-08-21T05:40:48;4.60;;;2.20;;
5285;SDS011;2665;53.112;7.358;2023-08-21T05:43:14;3.70;;;1.83;;
5285;SDS011;2665;53.112;7.358;2023-08-21T05:45:41;2.50;;;1.80;;
5285;SDS011;2665;53.112;7.358;2023-08-21T05:48:06;3.10;;;1.97;;
5285;SDS011;2665;53.112;7.358;2023-08-21T05:50:32;3.50;;;2.40;;
5285;SDS011;2665;53.112;7.358;2023-08-21T05:52:57;2.60;;;2.00;;
5285;SDS011;2665;53.112;7.358;2023-08-21T05:55:26;4.83;;;2.20;;
5285;SDS011;2665;53.112;7.358;2023-08-21T05:57:52;4.70;;;2.70;;
5285;SDS011;2665;53.112;7.358;2023-08-21T06:00:18;2.67;;;1.97;;
5285;SDS011;2665;53.112;7.358;2023-08-21T06:02:44;2.90;;;1.83;;
5285;SDS011;2665;53.112;7.358;2023-08-21T06:05:10;3.40;;;2.00;;
5285;SDS011;2665;53.112;7.358;2023-08-21T06:07:35;2.87;;;1.87;;
5285;SDS011;2665;53.112;7.358;2023-08-21T06:10:01;6.13;;;2.63;;
5285;SDS011;2665;53.112;7.358;2023-08-21T06:12:27;4.17;;;2.23;;
5285;SDS011;2665;53.112;7.358;2023-08-21T06:14:53;4.27;;;2.70;;
5285;SDS011;2665;53.112;7.358;2023-08-21T06:17:19;5.43;;;2.23;;
5285;SDS011;2665;53.112;7.358;2023-08-21T06:19:44;3.80;;;2.33;;
5285;SDS011;2665;53.112;7.358;2023-08-21T06:22:10;4.73;;;1.90;;
5285;SDS011;2665;53.112;7.358;2023-08-21T06:24:36;4.70;;;2.40;;
5285;SDS011;2665;53.112;7.358;2023-08-21T06:27:01;3.40;;;2.23;;
5285;SDS011;2665;53.112;7.358;2023-08-21T06:29:30;4.50;;;2.37;;
5285;SDS011;2665;53.112;7.358;2023-08-21T06:31:55;5.03;;;2.97;;
5285;SDS011;2665;53.112;7.358;2023-08-21T06:34:21;5.30;;;2.27;;
5285;SDS011;2665;53.112;7.358;2023-08-21T06:36:46;3.10;;;2.40;;
5285;SDS011;2665;53.112;7.358;2023-08-21T06:39:12;3.73;;;2.33;;
5285;SDS011;2665;53.112;7.358;2023-08-21T06:41:37;7.73;;;3.20;;
5285;SDS011;2665;53.112;7.358;2023-08-21T06:44:03;3.73;;;2.47;;
5285;SDS011;2665;53.112;7.358;2023-08-21T06:46:29;4.10;;;2.77;;
5285;SDS011;2665;53.112;7.358;2023-08-21T06:48:54;6.70;;;3.00;;
5285;SDS011;2665;53.112;7.358;2023-08-21T06:51:20;5.70;;;2.70;;
5285;SDS011;2665;53.112;7.358;2023-08-21T06:53:46;7.53;;;3.30;;
5285;SDS011;2665;53.112;7.358;2023-08-21T06:56:11;6.33;;;2.57;;
5285;SDS011;2665;53.112;7.358;2023-08-21T06:58:37;4.17;;;2.40;;
5285;SDS011;2665;53.112;7.358;2023-08-21T07:01:03;3.10;;;2.30;;
5285;SDS011;2665;53.112;7.358;2023-08-21T07:03:28;6.93;;;2.40;;
5285;SDS011;2665;53.112;7.358;2023-08-21T07:05:54;5.07;;;1.83;;
5285;SDS011;2665;53.112;7.358;2023-08-21T07:08:23;5.43;;;1.77;;
5285;SDS011;2665;53.112;7.358;2023-08-21T07:10:50;3.90;;;1.37;;
5285;SDS011;2665;53.112;7.358;2023-08-21T07:13:16;4.20;;;2.13;;
5285;SDS011;2665;53.112;7.358;2023-08-21T07:15:41;6.43;;;2.10;;
5285;SDS011;2665;53.112;7.358;2023-08-21T07:18:07;3.67;;;2.00;;
5285;SDS011;2665;53.112;7.358;2023-08-21T07:20:33;3.67;;;1.33;;
5285;SDS011;2665;53.112;7.358;2023-08-21T07:22:59;7.23;;;1.10;;
5285;SDS011;2665;53.112;7.358;2023-08-21T07:25:25;4.43;;;1.10;;
5285;SDS011;2665;53.112;7.358;2023-08-21T07:27:51;4.53;;;1.27;;
5285;SDS011;2665;53.112;7.358;2023-08-21T07:30:20;3.00;;;1.20;;
5285;SDS011;2665;53.112;7.358;2023-08-21T07:32:47;2.27;;;0.60;;
5285;SDS011;2665;53.112;7.358;2023-08-21T07:35:13;3.10;;;1.10;;
5285;SDS011;2665;53.112;7.358;2023-08-21T07:37:39;4.43;;;1.20;;
5285;SDS011;2665;53.112;7.358;2023-08-21T07:40:08;4.00;;;1.03;;
5285;SDS011;2665;53.112;7.358;2023-08-21T07:42:34;3.40;;;1.17;;
5285;SDS011;2665;53.112;7.358;2023-08-21T07:44:59;5.43;;;1.10;;
5285;SDS011;2665;53.112;7.358;2023-08-21T07:47:28;4.33;;;0.90;;
5285;SDS011;2665;53.112;7.358;2023-08-21T07:49:54;2.67;;;1.10;;
5285;SDS011;2665;53.112;7.358;2023-08-21T07:52:20;3.80;;;1.57;;
5285;SDS011;2665;53.112;7.358;2023-08-21T07:54:46;3.90;;;1.87;;
5285;SDS011;2665;53.112;7.358;2023-08-21T07:57:11;4.67;;;2.37;;
5285;SDS011;2665;53.112;7.358;2023-08-21T07:59:38;6.30;;;2.87;;
5285;SDS011;2665;53.112;7.358;2023-08-21T08:02:03;5.40;;;3.00;;
5285;SDS011;2665;53.112;7.358;2023-08-21T08:04:29;5.17;;;3.03;;
5285;SDS011;2665;53.112;7.358;2023-08-21T08:06:55;4.80;;;3.33;;
5285;SDS011;2665;53.112;7.358;2023-08-21T08:09:21;7.23;;;2.67;;
5285;SDS011;2665;53.112;7.358;2023-08-21T08:11:46;8.30;;;2.70;;
5285;SDS011;2665;53.112;7.358;2023-08-21T08:14:12;4.77;;;2.30;;
5285;SDS011;2665;53.112;7.358;2023-08-21T08:16:38;9.27;;;2.60;;
5285;SDS011;2665;53.112;7.358;2023-08-21T08:19:03;7.37;;;2.33;;
5285;SDS011;2665;53.112;7.358;2023-08-21T08:21:29;6.23;;;2.60;;
5285;SDS011;2665;53.112;7.358;2023-08-21T08:23:55;7.37;;;2.03;;
5285;SDS011;2665;53.112;7.358;2023-08-21T08:26:21;4.10;;;1.43;;
5285;SDS011;2665;53.112;7.358;2023-08-21T08:28:47;6.03;;;2.07;;
5285;SDS011;2665;53.112;7.358;2023-08-21T08:31:16;2.87;;;1.57;;
5285;SDS011;2665;53.112;7.358;2023-08-21T08:33:43;3.73;;;1.37;;
5285;SDS011;2665;53.112;7.358;2023-08-21T08:36:09;3.83;;;1.17;;
5285;SDS011;2665;53.112;7.358;2023-08-21T08:38:34;4.67;;;1.47;;
5285;SDS011;2665;53.112;7.358;2023-08-21T08:41:01;4.17;;;1.23;;
5285;SDS011;2665;53.112;7.358;2023-08-21T08:43:30;2.30;;;0.93;;
5285;SDS011;2665;53.112;7.358;2023-08-21T08:45:57;5.70;;;1.40;;
5285;SDS011;2665;53.112;7.358;2023-08-21T08:48:23;6.13;;;1.00;;
5285;SDS011;2665;53.112;7.358;2023-08-21T08:50:50;2.60;;;1.00;;
5285;SDS011;2665;53.112;7.358;2023-08-21T08:53:16;3.93;;;1.27;;
5285;SDS011;2665;53.112;7.358;2023-08-21T08:55:44;3.93;;;1.30;;
5285;SDS011;2665;53.112;7.358;2023-08-21T08:58:10;4.80;;;1.30;;
5285;SDS011;2665;53.112;7.358;2023-08-21T09:00:35;2.13;;;0.83;;
5285;SDS011;2665;53.112;7.358;2023-08-21T09:03:02;2.30;;;1.00;;
5285;SDS011;2665;53.112;7.358;2023-08-21T09:05:28;3.40;;;1.20;;
5285;SDS011;2665;53.112;7.358;2023-08-21T09:10:49;2.93;;;1.10;;
5285;SDS011;2665;53.112;7.358;2023-08-21T09:13:15;5.27;;;1.40;;
5285;SDS011;2665;53.112;7.358;2023-08-21T09:15:42;2.60;;;1.20;;
5285;SDS011;2665;53.112;7.358;2023-08-21T09:18:10;2.93;;;0.90;;
5285;SDS011;2665;53.112;7.358;2023-08-21T09:20:36;2.77;;;1.10;;
5285;SDS011;2665;53.112;7.358;2023-08-21T09:23:02;3.50;;;1.03;;
5285;SDS011;2665;53.112;7.358;2023-08-21T09:25:29;2.30;;;0.83;;
5285;SDS011;2665;53.112;7.358;2023-08-21T09:27:59;3.33;;;0.90;;
5285;SDS011;2665;53.112;7.358;2023-08-21T09:30:29;4.37;;;1.20;;
5285;SDS011;2665;53.112;7.358;2023-08-21T09:32:58;3.60;;;0.90;;
5285;SDS011;2665;53.112;7.358;2023-08-21T09:35:31;3.07;;;0.90;;
5285;SDS011;2665;53.112;7.358;2023-08-21T09:37:58;2.80;;;0.73;;
5285;SDS011;2665;53.112;7.358;2023-08-21T09:40:24;4.47;;;1.00;;
5285;SDS011;2665;53.112;7.358;2023-08-21T09:42:53;2.67;;;0.70;;
5285;SDS011;2665;53.112;7.358;2023-08-21T09:45:23;1.90;;;0.60;;
5285;SDS011;2665;53.112;7.358;2023-08-21T09:47:53;3.07;;;0.83;;
5285;SDS011;2665;53.112;7.358;2023-08-21T09:50:19;2.43;;;0.60;;
5285;SDS011;2665;53.112;7.358;2023-08-21T09:52:45;3.20;;;1.03;;
5285;SDS011;2665;53.112;7.358;2023-08-21T09:55:12;2.20;;;0.70;;
5285;SDS011;2665;53.112;7.358;2023-08-21T09:57:39;2.73;;;0.60;;
5285;SDS011;2665;53.112;7.358;2023-08-21T10:00:06;2.30;;;1.00;;
5285;SDS011;2665;53.112;7.358;2023-08-21T10:02:51;1.87;;;0.60;;
5285;SDS011;2665;53.112;7.358;2023-08-21T10:05:18;2.60;;;0.70;;
5285;SDS011;2665;53.112;7.358;2023-08-21T10:07:48;8.13;;;1.00;;
5285;SDS011;2665;53.112;7.358;2023-08-21T10:10:15;3.70;;;0.90;;
5285;SDS011;2665;53.112;7.358;2023-08-21T10:12:41;2.90;;;0.83;;
5285;SDS011;2665;53.112;7.358;2023-08-21T10:15:07;6.17;;;0.80;;
5285;SDS011;2665;53.112;7.358;2023-08-21T10:17:34;2.50;;;0.80;;
5285;SDS011;2665;53.112;7.358;2023-08-21T10:20:07;4.10;;;0.70;;
5285;SDS011;2665;53.112;7.358;2023-08-21T10:22:48;4.80;;;0.80;;
5285;SDS011;2665;53.112;7.358;2023-08-21T10:27:41;2.80;;;0.73;;
5285;SDS011;2665;53.112;7.358;2023-08-21T10:30:14;3.03;;;0.80;;
5285;SDS011;2665;53.112;7.358;2023-08-21T10:32:45;6.60;;;0.87;;
5285;SDS011;2665;53.112;7.358;2023-08-21T10:35:15;2.33;;;0.60;;
5285;SDS011;2665;53.112;7.358;2023-08-21T10:40:32;2.87;;;0.70;;
5285;SDS011;2665;53.112;7.358;2023-08-21T10:43:02;2.53;;;0.60;;
5285;SDS011;2665;53.112;7.358;2023-08-21T10:45:28;3.77;;;0.70;;
5285;SDS011;2665;53.112;7.358;2023-08-21T10:47:56;2.10;;;0.70;;
5285;SDS011;2665;53.112;7.358;2023-08-21T10:50:24;3.47;;;0.80;;
5285;SDS011;2665;53.112;7.358;2023-08-21T10:52:51;2.40;;;0.90;;
5285;SDS011;2665;53.112;7.358;2023-08-21T10:55:18;1.83;;;0.60;;
5285;SDS011;2665;53.112;7.358;2023-08-21T10:57:45;1.80;;;0.60;;
5285;SDS011;2665;53.112;7.358;2023-08-21T11:00:15;1.90;;;0.73;;
5285;SDS011;2665;53.112;7.358;2023-08-21T11:02:46;2.00;;;0.60;;
5285;SDS011;2665;53.112;7.358;2023-08-21T11:05:14;3.20;;;0.70;;
5285;SDS011;2665;53.112;7.358;2023-08-21T11:07:47;2.83;;;0.70;;
5285;SDS011;2665;53.112;7.358;2023-08-21T11:10:13;4.97;;;0.97;;
5285;SDS011;2665;53.112;7.358;2023-08-21T11:12:55;3.40;;;0.50;;
5285;SDS011;2665;53.112;7.358;2023-08-21T11:15:23;2.20;;;0.67;;
5285;SDS011;2665;53.112;7.358;2023-08-21T11:20:19;3.00;;;0.67;;
5285;SDS011;2665;53.112;7.358;2023-08-21T11:22:45;3.77;;;0.80;;
5285;SDS011;2665;53.112;7.358;2023-08-21T11:25:10;4.80;;;1.00;;
5285;SDS011;2665;53.112;7.358;2023-08-21T11:27:36;2.17;;;0.70;;
5285;SDS011;2665;53.112;7.358;2023-08-21T11:30:02;3.10;;;0.70;;
5285;SDS011;2665;53.112;7.358;2023-08-21T11:32:29;3.53;;;0.70;;
5285;SDS011;2665;53.112;7.358;2023-08-21T11:34:55;3.47;;;0.83;;
5285;SDS011;2665;53.112;7.358;2023-08-21T11:37:22;3.47;;;1.10;;
5285;SDS011;2665;53.112;7.358;2023-08-21T11:39:53;5.40;;;1.10;;
5285;SDS011;2665;53.112;7.358;2023-08-21T11:42:29;2.27;;;0.67;;
5285;SDS011;2665;53.112;7.358;2023-08-21T11:44:56;1.97;;;0.60;;
5285;SDS011;2665;53.112;7.358;2023-08-21T11:47:22;2.43;;;0.60;;
5285;SDS011;2665;53.112;7.358;2023-08-21T11:49:49;2.17;;;0.70;;
5285;SDS011;2665;53.112;7.358;2023-08-21T11:52:19;2.60;;;0.73;;
5285;SDS011;2665;53.112;7.358;2023-08-21T11:54:50;1.93;;;0.63;;
5285;SDS011;2665;53.112;7.358;2023-08-21T11:57:16;2.27;;;0.70;;
5285;SDS011;2665;53.112;7.358;2023-08-21T11:59:43;3.60;;;0.73;;
5285;SDS011;2665;53.112;7.358;2023-08-21T12:02:18;1.93;;;0.57;;
5285;SDS011;2665;53.112;7.358;2023-08-21T12:05:05;2.70;;;0.70;;
5285;SDS011;2665;53.112;7.358;2023-08-21T12:07:34;1.90;;;0.70;;
5285;SDS011;2665;53.112;7.358;2023-08-21T12:10:00;1.70;;;0.60;;
5285;SDS011;2665;53.112;7.358;2023-08-21T12:12:26;1.70;;;0.53;;
5285;SDS011;2665;53.112;7.358;2023-08-21T12:14:52;3.10;;;0.80;;
5285;SDS011;2665;53.112;7.358;2023-08-21T12:17:17;1.80;;;0.80;;
5285;SDS011;2665;53.112;7.358;2023-08-21T12:19:43;3.13;;;0.57;;
5285;SDS011;2665;53.112;7.358;2023-08-21T12:22:09;3.40;;;0.80;;
5285;SDS011;2665;53.112;7.358;2023-08-21T12:24:34;2.70;;;0.73;;
5285;SDS011;2665;53.112;7.358;2023-08-21T12:27:02;1.87;;;0.80;;
5285;SDS011;2665;53.112;7.358;2023-08-21T12:29:28;1.90;;;0.87;;
5285;SDS011;2665;53.112;7.358;2023-08-21T12:31:54;2.23;;;0.60;;
5285;SDS011;2665;53.112;7.358;2023-08-21T12:34:19;1.87;;;0.70;;
5285;SDS011;2665;53.112;7.358;2023-08-21T12:36:45;1.83;;;0.77;;
5285;SDS011;2665;53.112;7.358;2023-08-21T12:39:11;2.37;;;0.77;;
5285;SDS011;2665;53.112;7.358;2023-08-21T12:41:37;2.03;;;0.50;;
5285;SDS011;2665;53.112;7.358;2023-08-21T12:44:03;1.60;;;0.60;;
5285;SDS011;2665;53.112;7.358;2023-08-21T12:46:29;1.67;;;0.50;;
5285;SDS011;2665;53.112;7.358;2023-08-21T12:48:55;3.43;;;0.60;;
5285;SDS011;2665;53.112;7.358;2023-08-21T12:51:21;1.90;;;0.70;;
5285;SDS011;2665;53.112;7.358;2023-08-21T12:53:47;2.53;;;0.70;;
5285;SDS011;2665;53.112;7.358;2023-08-21T12:56:13;2.10;;;0.60;;
5285;SDS011;2665;53.112;7.358;2023-08-21T12:58:38;1.57;;;0.70;;
5285;SDS011;2665;53.112;7.358;2023-08-21T13:01:04;1.87;;;0.70;;
5285;SDS011;2665;53.112;7.358;2023-08-21T13:03:30;3.57;;;0.80;;
5285;SDS011;2665;53.112;7.358;2023-08-21T13:05:58;3.70;;;0.80;;
5285;SDS011;2665;53.112;7.358;2023-08-21T13:08:23;1.90;;;0.50;;
5285;SDS011;2665;53.112;7.358;2023-08-21T13:10:49;4.03;;;0.80;;
5285;SDS011;2665;53.112;7.358;2023-08-21T13:13:14;1.80;;;0.70;;
5285;SDS011;2665;53.112;7.358;2023-08-21T13:15:40;1.75;;;0.60;;
5285;SDS011;2665;53.112;7.358;2023-08-21T13:18:09;1.83;;;0.73;;
5285;SDS011;2665;53.112;7.358;2023-08-21T13:20:35;1.88;;;0.60;;
5285;SDS011;2665;53.112;7.358;2023-08-21T13:23:00;1.60;;;0.70;;
5285;SDS011;2665;53.112;7.358;2023-08-21T13:25:26;2.00;;;0.60;;
5285;SDS011;2665;53.112;7.358;2023-08-21T13:27:52;2.33;;;0.70;;
5285;SDS011;2665;53.112;7.358;2023-08-21T13:30:18;1.50;;;0.50;;
5285;SDS011;2665;53.112;7.358;2023-08-21T13:32:45;2.50;;;0.60;;
5285;SDS011;2665;53.112;7.358;2023-08-21T13:35:10;1.60;;;0.53;;
5285;SDS011;2665;53.112;7.358;2023-08-21T13:37:37;3.50;;;0.70;;
5285;SDS011;2665;53.112;7.358;2023-08-21T13:40:03;1.50;;;0.57;;
5285;SDS011;2665;53.112;7.358;2023-08-21T13:42:37;1.43;;;0.43;;
5285;SDS011;2665;53.112;7.358;2023-08-21T13:45:06;1.50;;;0.60;;
5285;SDS011;2665;53.112;7.358;2023-08-21T13:47:33;1.90;;;0.67;;
5285;SDS011;2665;53.112;7.358;2023-08-21T13:49:58;2.00;;;0.50;;
5285;SDS011;2665;53.112;7.358;2023-08-21T13:52:24;2.47;;;0.67;;
5285;SDS011;2665;53.112;7.358;2023-08-21T13:54:50;3.40;;;0.63;;
5285;SDS011;2665;53.112;7.358;2023-08-21T13:57:15;2.00;;;0.50;;
5285;SDS011;2665;53.112;7.358;2023-08-21T13:59:41;2.53;;;0.60;;
5285;SDS011;2665;53.112;7.358;2023-08-21T14:02:06;2.43;;;0.60;;
5285;SDS011;2665;53.112;7.358;2023-08-21T14:04:32;4.70;;;0.80;;
5285;SDS011;2665;53.112;7.358;2023-08-21T14:06:57;1.50;;;0.50;;
5285;SDS011;2665;53.112;7.358;2023-08-21T14:09:23;3.07;;;0.60;;
5285;SDS011;2665;53.112;7.358;2023-08-21T14:11:49;2.13;;;0.60;;
5285;SDS011;2665;53.112;7.358;2023-08-21T14:14:14;1.90;;;0.70;;
5285;SDS011;2665;53.112;7.358;2023-08-21T14:16:40;1.67;;;0.60;;
5285;SDS011;2665;53.112;7.358;2023-08-21T14:19:05;3.33;;;0.60;;
5285;SDS011;2665;53.112;7.358;2023-08-21T14:21:31;2.60;;;0.80;;
5285;SDS011;2665;53.112;7.358;2023-08-21T14:23:56;1.90;;;0.70;;
5285;SDS011;2665;53.112;7.358;2023-08-21T14:26:22;2.47;;;0.87;;
5285;SDS011;2665;53.112;7.358;2023-08-21T14:28:48;2.25;;;0.57;;
5285;SDS011;2665;53.112;7.358;2023-08-21T14:31:15;3.05;;;0.70;;
5285;SDS011;2665;53.112;7.358;2023-08-21T14:33:41;2.73;;;0.73;;
5285;SDS011;2665;53.112;7.358;2023-08-21T14:36:07;1.85;;;0.60;;
5285;SDS011;2665;53.112;7.358;2023-08-21T14:38:33;2.80;;;0.67;;
5285;SDS011;2665;53.112;7.358;2023-08-21T14:40:59;4.00;;;0.60;;
5285;SDS011;2665;53.112;7.358;2023-08-21T14:43:25;3.53;;;0.70;;
5285;SDS011;2665;53.112;7.358;2023-08-21T14:45:50;3.57;;;0.70;;
5285;SDS011;2665;53.112;7.358;2023-08-21T14:48:16;2.20;;;0.70;;
5285;SDS011;2665;53.112;7.358;2023-08-21T14:50:42;2.03;;;0.80;;
5285;SDS011;2665;53.112;7.358;2023-08-21T14:53:08;2.60;;;1.10;;
5285;SDS011;2665;53.112;7.358;2023-08-21T14:55:34;1.70;;;0.70;;
5285;SDS011;2665;53.112;7.358;2023-08-21T14:58:00;1.80;;;0.60;;
5285;SDS011;2665;53.112;7.358;2023-08-21T15:00:31;3.90;;;0.63;;
5285;SDS011;2665;53.112;7.358;2023-08-21T15:02:56;2.40;;;0.70;;
5285;SDS011;2665;53.112;7.358;2023-08-21T15:05:22;2.50;;;0.80;;
5285;SDS011;2665;53.112;7.358;2023-08-21T15:07:47;1.93;;;0.70;;
5285;SDS011;2665;53.112;7.358;2023-08-21T15:10:13;1.70;;;0.57;;
5285;SDS011;2665;53.112;7.358;2023-08-21T15:12:39;1.50;;;0.60;;
5285;SDS011;2665;53.112;7.358;2023-08-21T15:15:04;1.60;;;0.60;;
5285;SDS011;2665;53.112;7.358;2023-08-21T15:17:30;2.30;;;1.03;;
5285;SDS011;2665;53.112;7.358;2023-08-21T15:19:56;2.37;;;0.50;;
5285;SDS011;2665;53.112;7.358;2023-08-21T15:22:21;4.90;;;0.70;;
5285;SDS011;2665;53.112;7.358;2023-08-21T15:24:47;2.03;;;0.70;;
5285;SDS011;2665;53.112;7.358;2023-08-21T15:27:13;1.63;;;0.60;;
5285;SDS011;2665;53.112;7.358;2023-08-21T15:29:39;2.17;;;1.17;;